Aérodrome :
LOGIN :

S'inscrire | Disclaimer

   EN    FR    IT 

 










Légende :    VFR   VFR Marginal   IFR   IFR Intensif   IFR Très Intensif
Visi : 
Plafond : 
>= 8 km
>= 3000ft
5 à 8 km
1000 à 3000 ft
1500m à 5 km
500 à 1000 ft
800 à 1500m
200 à 500 ft
< 800m
< 200 ft
Symboles :   Orages  Brouillard  Fortes neiges  Fortes précipitations  Vent > 20 kt
SIGMETs :   Divers  Orages  Givrage  Turbulence  Onde Orograph.  Cendres Volcan.






- Altitude de l'aérodrome : 2555 ft
- Code IATA : ADJ


OJAM - Marka Int.

DERNIER METAR :
  • 010500Z 00000KT 3000 BR FEW020 07/06 Q1016 NOSIG

METARs EXPIRÉS :
  • 010400Z 00000KT 3000 BR NSC 07/06 Q1016 NOSIG
  • 010300Z 00000KT 4000 BR NSC 08/07 Q1015 NOSIG

TAF COR TAF OJAM
Valide du 01 à 00h jusqu'au 02 à 06h UTC


302250Z 0100/0206 VRB01KT 6000 NSC
PROB30 0102/0105 3000 BR
BECMG 0105/0107 06010KT 5000 HZ FEW030
PROB30
TEMPO 0116/0206 06015KT 3000 -RA BLDU FEW020 SCT025
FIR OJAC / Asie



MET'MAP, la Météo Aéronautique d'un coup d'oeil ! - Copyright ORBIFLY Décembre 2007 - Disclaimer

ORBIFLY MET'MAP TEAM :

Programmation & Développement : Alexandra Zaïnal
Sur une idée originale de : Baudouin d'Aumeries
Assistance à la programmation : Marc-Olivier Méhu
Soutien technique & logistique : Manuel Goepfert

Contact : metmap@orbifly.com




SOURCES & CREDITS :

   NOAA